Latest Weather Observations for Moranbah Airport

IDQ60801

Issued at 4:12 pm EST Sunday 18 November 2018 (issued every 10 minutes, with the page automatically refreshed every 10 minutes)

About weather observations | Map of weather stations | Latest weather observations for QLD | Other Formats
Station Details ID: 034035 Name: MORANBAH AIRPORT Lat: -22.06 Lon: 148.08 Height: 232.2 m
Data from the previous 72 hours. | See also: Recent months at Moranbah Airport
Date/Time
EST
Temp
°C
App
Temp
°C
Dew
Point
°C
Rel
Hum
%
Delta-T
°C
Wind Press
QNH
hPa
Press
MSL
hPa
Rain since
9am
mm
Dir  Spd
km/h
Gust
km/h
Spd
kts
Gust
kts
18/04:00pm 34.1 30.9 11.9 26 13.3 ESE 20 32 11 17 1009.9 1008.5 0.0
18/03:30pm 34.3 31.5 12.6 27 13.1 ESE 19 28 10 15 1010.1 1008.7 0.0
18/03:00pm 34.7 32.0 13.0 27 13.2 E 19 30 10 16 1010.5 1009.1 0.0
18/02:30pm 34.6 32.6 14.0 29 12.7 ESE 17 32 9 17 1010.9 1009.5 0.0
18/02:00pm 34.6 32.6 14.0 29 12.7 SSE 17 28 9 15 1011.2 1009.8 0.0
18/01:30pm 35.0 33.7 14.8 29 12.7 ENE 15 35 8 19 1011.8 1010.4 0.0
18/01:00pm 33.3 30.6 12.9 29 12.4 ESE 19 30 10 16 1012.4 1011.0 0.0
18/12:30pm 33.2 31.9 13.8 31 11.9 SSE 13 24 7 13 1012.7 1011.3 0.0
18/12:00pm 32.2 30.5 14.8 35 10.8 NNE 17 30 9 16 1013.2 1011.8 0.0
18/11:30am 31.6 29.7 15.1 36 10.3 NE 19 33 10 18 1013.6 1012.2 0.0
18/11:00am 31.9 30.7 16.2 38 9.9 NNE 17 28 9 15 1013.9 1012.5 0.0
18/10:30am 30.6 28.9 15.8 40 9.3 NE 19 28 10 15 1014.2 1012.8 0.0
18/10:00am 29.4 27.8 15.9 44 8.4 NE 19 30 10 16 1014.6 1013.2 0.0
18/09:30am 29.3 27.5 15.4 42 8.6 NE 19 30 10 16 1014.6 1013.2 0.0
18/09:00am 28.4 25.6 15.3 45 8.1 ENE 24 35 13 19 1014.9 1013.5 0.0
18/08:30am 27.4 25.4 15.4 48 7.4 NE 20 28 11 15 1015.0 1013.6 0.0
18/08:00am 26.7 25.6 16.3 53 6.5 ENE 17 26 9 14 1015.0 1013.6 0.0
18/07:30am 25.6 24.4 17.0 59 5.4 NE 19 28 10 15 1014.9 1013.5 0.0
18/07:00am 24.4 23.6 17.1 63 4.6 NE 17 22 9 12 1014.8 1013.4 0.0
18/06:30am 23.0 21.7 16.8 68 3.8 NE 19 24 10 13 1014.4 1013.0 0.0
18/06:00am 23.0 22.5 16.8 68 3.8 ENE 15 20 8 11 1014.4 1013.0 0.0
18/05:30am 22.4 21.6 16.2 68 3.8 ESE 15 19 8 10 1014.1 1012.7 0.0
18/05:00am 22.6 21.8 16.2 67 3.9 ESE 15 20 8 11 1013.7 1012.3 0.0
18/04:30am 22.7 21.8 15.8 65 4.2 ESE 15 19 8 10 1013.4 1012.0 0.0
18/04:00am 22.8 21.7 15.4 63 4.5 ESE 15 19 8 10 1013.3 1011.9 0.0
18/03:30am 23.0 21.9 15.3 62 4.6 ESE 15 17 8 9 1012.8 1011.4 0.0
18/03:00am 23.0 22.6 15.1 61 4.8 ESE 11 15 6 8 1012.4 1011.0 0.0
18/02:30am 23.2 21.6 15.0 60 4.9 SE 17 19 9 10 1012.5 1011.1 0.0
18/02:00am 23.5 21.4 14.8 58 5.2 ESE 19 24 10 13 1012.7 1011.3 0.0
18/01:30am 23.8 21.9 14.2 55 5.7 E 17 20 9 11 1012.7 1011.3 0.0
18/01:00am 24.1 22.1 13.9 53 6.0 ESE 17 20 9 11 1013.3 1011.9 0.0
18/12:30am 24.6 22.0 13.8 51 6.4 SE 20 28 11 15 1013.6 1012.2 0.0
18/12:00am 25.1 22.5 13.9 49 6.7 SE 20 26 11 14 1014.2 1012.8 0.0
 
Date/Time
EST
Temp
°C
App
Temp
°C
Dew
Point
°C
Rel
Hum
%
Delta-T
°C
Wind Press
QNH
hPa
Press
MSL
hPa
Rain since
9am
mm
Dir  Spd
km/h
Gust
km/h
Spd
kts
Gust
kts
17/11:30pm 25.3 23.3 13.8 49 6.8 SE 17 22 9 12 1014.2 1012.8 0.0
17/11:00pm 25.4 24.7 11.9 43 7.8 NE 7 11 4 6 1013.5 1012.1 0.0
17/10:30pm 25.4 25.6 11.9 43 7.8 ENE 2 6 1 3 1013.4 1012.0 0.0
17/10:00pm 26.1 24.6 11.8 41 8.3 NNE 11 15 6 8 1013.3 1011.9 0.0
17/09:30pm 27.2 24.8 11.3 37 9.2 ENE 15 20 8 11 1013.0 1011.6 0.0
17/09:00pm 27.8 25.4 10.1 33 10.0 ENE 13 17 7 9 1012.6 1011.2 0.0
17/08:30pm 28.5 25.5 9.2 30 10.8 ENE 15 20 8 11 1012.6 1011.2 0.0
17/08:00pm 29.4 25.8 10.0 30 11.0 ENE 19 26 10 14 1012.4 1011.0 0.0
17/07:30pm 30.2 26.1 10.2 29 11.5 NE 22 30 12 16 1011.9 1010.5 0.0
17/07:00pm 31.0 27.0 10.4 28 11.9 ENE 22 30 12 16 1011.6 1010.2 0.0
17/06:30pm 32.0 28.1 9.5 25 12.9 ENE 20 28 11 15 1011.2 1009.8 0.0
17/06:00pm 33.2 29.1 8.6 22 14.0 NE 20 32 11 17 1010.7 1009.3 0.0
17/05:30pm 34.0 30.3 9.3 22 14.2 E 19 28 10 15 1010.5 1009.1 0.0
17/05:00pm 34.5 30.7 9.0 21 14.6 NE 19 28 10 15 1010.3 1008.9 0.0
17/04:30pm 35.2 31.3 9.6 21 14.9 E 20 30 11 16 1010.3 1008.9 0.0
17/04:00pm 34.8 31.2 9.9 22 14.5 E 19 28 10 15 1010.2 1008.8 0.0
17/03:30pm 35.0 32.8 9.4 21 14.8 SE 11 24 6 13 1010.4 1009.0 0.0
17/03:00pm 35.1 32.2 9.5 21 14.9 SE 15 28 8 15 1010.7 1009.3 0.0
17/02:30pm 34.6 31.0 10.4 23 14.2 E 20 33 11 18 1011.1 1009.7 0.0
17/02:00pm 34.8 31.4 11.2 24 14.0 ESE 20 32 11 17 1011.6 1010.2 0.0
17/01:30pm 34.4 31.3 10.3 23 14.1 ENE 17 41 9 22 1012.1 1010.8 0.0
17/01:00pm 34.1 30.9 11.9 26 13.3 SE 20 30 11 16 1012.9 1011.5 0.0
17/12:30pm 33.8 31.1 11.6 26 13.2 ESE 17 30 9 16 1013.3 1011.9 0.0
17/12:00pm 32.6 31.2 12.3 29 12.1 N 11 20 6 11 1013.7 1012.3 0.0
17/11:30am 33.2 31.2 13.8 31 11.9 ESE 17 24 9 13 1014.2 1012.8 0.0
17/11:00am 32.1 30.5 13.8 33 11.2 NE 15 28 8 15 1014.7 1013.3 0.0
17/10:30am 32.1 29.4 12.8 30 11.6 ESE 19 28 10 15 1015.0 1013.6 0.0
17/10:00am 30.7 30.1 13.5 35 10.4 E 9 17 5 9 1015.4 1014.0 0.0
17/09:30am 29.2 28.6 13.4 38 9.5 NE 9 24 5 13 1015.4 1014.0 0.0
17/09:00am 28.2 27.8 14.1 42 8.5 ENE 9 17 5 9 1015.5 1014.1 0.0
17/08:30am 26.3 26.2 13.8 46 7.5 NNE 7 13 4 7 1015.5 1014.1 0.0
17/08:00am 25.6 25.6 13.5 47 7.2 NE 6 11 3 6 1015.5 1014.1 0.0
17/07:30am 24.1 24.7 15.3 58 5.3 W 6 9 3 5 1015.3 1013.9 0.0
17/07:00am 23.0 24.3 16.1 65 4.2 ENE 4 9 2 5 1015.0 1013.6 0.0
17/06:30am 21.9 22.8 16.6 72 3.3 SE 7 11 4 6 1014.7 1013.3 0.0
17/06:00am 19.5 20.3 15.8 79 2.2 S 6 7 3 4 1014.4 1013.0 0.0
17/05:30am 18.2 19.7 14.7 80 2.0 CALM 0 0 0 0 1014.2 1012.8 0.0
17/05:00am 19.0 19.5 15.1 78 2.3 ENE 6 7 3 4 1013.7 1012.3 0.0
17/04:30am 19.4 18.5 14.9 75 2.7 ESE 13 15 7 8 1013.5 1012.1 0.0
17/04:00am 19.3 18.5 15.0 76 2.5 SE 13 15 7 8 1013.5 1012.1 0.0
17/03:30am 19.3 18.8 15.0 76 2.5 SE 11 15 6 8 1013.1 1011.7 0.0
17/03:00am 19.6 18.7 14.8 74 2.8 SE 13 13 7 7 1013.0 1011.6 0.0
17/02:30am 20.0 19.5 14.8 72 3.1 SE 11 13 6 7 1013.1 1011.7 0.0
17/02:00am 20.4 19.4 14.7 70 3.4 SE 13 15 7 8 1013.1 1011.7 0.0
17/01:30am 20.8 19.9 14.9 69 3.5 SSE 13 15 7 8 1013.2 1011.8 0.0
17/01:00am 21.2 20.5 14.4 65 4.0 SE 11 13 6 7 1013.5 1012.1 0.0
17/12:30am 22.3 21.3 14.7 62 4.5 ESE 13 15 7 8 1013.8 1012.4 0.0
17/12:00am 22.8 21.4 14.4 59 5.0 SE 15 17 8 9 1014.1 1012.7 0.0
 
Date/Time
EST
Temp
°C
App
Temp
°C
Dew
Point
°C
Rel
Hum
%
Delta-T
°C
Wind Press
QNH
hPa
Press
MSL
hPa
Rain since
9am
mm
Dir  Spd
km/h
Gust
km/h
Spd
kts
Gust
kts
16/11:30pm 23.8 23.1 14.2 55 5.7 SE 11 17 6 9 1014.4 1013.0 0.0
16/11:00pm 24.7 22.9 14.5 53 6.1 ENE 17 20 9 11 1014.4 1013.0 0.0
16/10:30pm 25.2 24.0 14.0 49 6.7 E 13 15 7 8 1014.5 1013.1 0.0
16/10:00pm 26.0 24.1 14.1 47 7.1 ENE 17 24 9 13 1014.4 1013.0 0.0
16/09:30pm 26.6 24.5 13.7 45 7.7 ENE 17 24 9 13 1014.1 1012.7 0.0
16/09:00pm 27.3 25.2 13.6 43 8.2 ENE 17 24 9 13 1013.9 1012.5 0.0
16/08:30pm 28.1 24.8 12.8 38 9.1 ENE 22 33 12 18 1013.7 1012.3 0.0
16/08:00pm 28.8 25.6 11.8 35 9.9 NE 20 30 11 16 1013.4 1012.0 0.0
16/07:30pm 29.8 26.5 10.9 31 10.9 NE 19 28 10 15 1013.0 1011.6 0.0
16/07:00pm 30.4 27.1 10.9 30 11.3 NE 19 24 10 13 1012.7 1011.3 0.0
16/06:30pm 31.3 28.3 10.6 28 12.0 E 17 24 9 13 1012.6 1011.2 0.0
16/06:00pm 32.5 29.1 10.5 26 12.8 ESE 19 24 10 13 1012.1 1010.8 0.0
16/05:30pm 33.4 29.5 9.4 23 13.8 ESE 20 26 11 14 1011.7 1010.3 0.0
16/05:00pm 34.1 31.1 10.7 24 13.8 ESE 17 26 9 14 1011.5 1010.1 0.0
16/04:30pm 34.2 30.5 10.1 23 14.0 E 20 30 11 16 1011.5 1010.1 0.0
16/04:00pm 34.2 31.0 11.4 25 13.6 SE 19 26 10 14 1011.5 1010.1 0.0
16/03:30pm 34.7 31.1 9.9 22 14.4 SE 19 33 10 18 1011.8 1010.4 0.0
16/03:00pm 34.3 30.2 11.4 25 13.6 SSE 24 39 13 21 1012.1 1010.8 0.0
16/02:30pm 33.9 31.4 12.3 27 13.0 SE 17 28 9 15 1012.7 1011.3 0.0
16/02:00pm 32.6 29.5 12.3 29 12.2 SSE 20 30 11 16 1013.1 1011.7 0.0
16/01:30pm 34.3 30.9 12.6 27 13.1 ESE 22 32 12 17 1013.5 1012.1 0.0
16/01:00pm 33.4 31.8 12.9 28 12.4 SE 13 26 7 14 1014.0 1012.6 0.0
16/12:30pm 33.1 29.6 12.1 27 12.6 E 22 33 12 18 1014.5 1013.1 0.0
16/12:00pm 33.8 30.1 12.7 27 12.8 SE 24 35 13 19 1015.0 1013.6 0.0
16/11:30am 32.0 28.9 12.3 30 11.8 ESE 20 33 11 18 1015.6 1014.2 0.0
16/11:00am 30.8 28.5 13.1 34 10.6 SE 17 28 9 15 1015.9 1014.6 0.0
16/10:30am 30.7 28.0 13.0 33 10.6 ESE 19 28 10 15 1016.4 1015.1 0.0
16/10:00am 30.9 29.5 14.5 37 10.1 E 15 28 8 15 1016.9 1015.5 0.0
16/09:30am 29.0 29.0 15.2 43 8.5 NNW 9 19 5 10 1017.0 1015.6 0.0
16/09:00am 27.6 27.5 14.9 45 7.7 ENE 9 20 5 11 1017.3 1015.9 0.0
16/08:30am 27.0 27.3 16.0 51 6.8 NNE 9 13 5 7 1017.4 1016.0 0.0
16/08:00am 25.5 25.9 16.4 57 5.6 ENE 9 11 5 6 1017.4 1016.0 0.0
16/07:30am 24.7 25.2 15.6 57 5.6 ESE 7 15 4 8 1017.2 1015.8 0.0
16/07:00am 23.9 24.5 16.9 65 4.3 E 9 11 5 6 1016.9 1015.5 0.0
16/06:30am 22.4 23.6 17.3 73 3.2 SE 7 9 4 5 1016.6 1015.3 0.0
16/06:00am 20.7 21.9 17.3 81 2.1 SSE 7 9 4 5 1016.3 1015.0 0.0
16/05:30am 18.9 18.8 16.1 84 1.7 SSE 11 11 6 6 1016.1 1014.8 0.0
16/05:00am 19.0 18.9 15.9 82 1.9 SE 11 13 6 7 1015.6 1014.2 0.0
16/04:30am 19.5 19.5 16.2 81 2.0 SSE 11 11 6 6 1015.5 1014.1 0.0
16/04:00am 19.7 19.6 16.0 79 2.2 SSE 11 13 6 7 1015.2 1013.8 0.0
16/03:30am 19.9 19.4 16.0 78 2.4 SE 13 13 7 7 1014.9 1013.5 0.0
16/03:00am 20.4 20.6 15.8 75 2.8 SE 9 9 5 5 1014.9 1013.5 0.0
16/02:30am 20.3 20.2 14.9 71 3.2 SE 9 11 5 6 1015.0 1013.6 0.0
16/02:00am 20.9 21.3 15.2 70 3.4 ESE 7 9 4 5 1015.1 1013.7 0.0
16/01:30am 21.3 21.0 15.4 69 3.5 ESE 11 13 6 7 1015.2 1013.8 0.0
16/01:00am 21.7 21.7 15.3 67 3.8 SE 9 11 5 6 1015.4 1014.0 0.0
16/12:30am 22.3 21.9 15.2 64 4.3 SE 11 13 6 7 1015.6 1014.2 0.0
16/12:00am 23.4 23.1 15.5 61 4.8 ESE 11 15 6 8 1015.9 1014.6 0.0
 
Date/Time
EST
Temp
°C
App
Temp
°C
Dew
Point
°C
Rel
Hum
%
Delta-T
°C
Wind Press
QNH
hPa
Press
MSL
hPa
Rain since
9am
mm
Dir  Spd
km/h
Gust
km/h
Spd
kts
Gust
kts
15/11:30pm 23.9 22.8 15.4 59 5.2 E 15 19 8 10 1016.2 1014.9 0.0
15/11:00pm 24.1 23.9 15.6 59 5.2 ESE 11 13 6 7 1016.3 1015.0 0.0
15/10:30pm 25.1 24.5 15.7 56 5.8 E 13 17 7 9 1016.1 1014.8 0.0
15/10:00pm 25.6 24.3 15.9 55 6.0 ENE 17 24 9 13 1015.9 1014.6 0.0
15/09:30pm 26.1 24.9 16.1 54 6.2 ENE 17 24 9 13 1016.0 1014.7 0.0
15/09:00pm 26.7 25.1 16.0 52 6.6 ENE 19 26 10 14 1015.5 1014.1 0.0
15/08:30pm 27.7 25.7 15.4 47 7.6 NE 20 32 11 17 1015.2 1013.8 0.0
15/08:00pm 28.6 25.8 13.3 39 9.1 ENE 20 26 11 14 1015.0 1013.6 0.0
15/07:30pm 29.0 27.0 12.8 36 9.6 ESE 15 32 8 17 1014.5 1013.1 0.0
15/07:00pm 29.4 28.4 12.3 34 10.1 ESE 9 11 5 6 1014.1 1012.7 0.0
15/06:30pm 30.7 28.7 12.6 33 10.8 ESE 15 19 8 10 1013.8 1012.4 0.0
15/06:00pm 31.9 29.5 12.7 31 11.5 ESE 17 20 9 11 1013.7 1012.3 0.0
15/05:30pm 32.5 29.6 12.2 29 12.1 ESE 19 24 10 13 1013.5 1012.1 0.0
15/05:00pm 32.9 30.6 13.0 30 12.1 ESE 17 24 9 13 1013.4 1012.0 0.0
15/04:30pm 33.2 29.6 11.7 27 12.8 ESE 22 32 12 17 1013.3 1011.9 0.0

Other Formats:

Comma delimited format used in spreadsheet applications
http://www.bom.gov.au/fwo/IDQ60801/IDQ60801.94397.axf

JavaScript Object Notation format (JSON) in row-major order
http://www.bom.gov.au/fwo/IDQ60801/IDQ60801.94397.json